createdAt,value
2023-06-03T00:00:02.679Z,40.10
2023-06-03T00:01:01.628Z,40.11
2023-06-03T00:02:02.691Z,40.18
2023-06-03T00:03:02.844Z,40.19
2023-06-03T00:04:02.008Z,40.18
2023-06-03T00:05:01.827Z,40.18
2023-06-03T00:06:02.879Z,40.19
2023-06-03T00:07:01.857Z,40.19
2023-06-03T00:08:01.916Z,40.10
2023-06-03T00:09:01.933Z,40.19
2023-06-03T00:10:02.999Z,40.23
2023-06-03T00:11:03.197Z,40.23
2023-06-03T00:12:03.072Z,40.18
2023-06-03T00:13:03.105Z,40.13
2023-06-03T00:14:02.135Z,40.22
2023-06-03T00:15:03.217Z,40.27
2023-06-03T00:16:02.287Z,40.21
2023-06-03T00:17:02.354Z,40.20
2023-06-03T00:18:02.476Z,40.20
2023-06-03T00:19:02.365Z,40.19
2023-06-03T00:20:03.448Z,40.20
2023-06-03T00:21:02.675Z,40.28
2023-06-03T00:22:02.499Z,40.22
2023-06-03T00:23:03.542Z,40.27
2023-06-03T00:24:03.756Z,40.22
2023-06-03T00:25:03.636Z,40.21
2023-06-03T00:26:03.685Z,40.20
2023-06-03T00:27:02.710Z,40.18
2023-06-03T00:28:03.770Z,40.20
2023-06-03T00:29:03.820Z,40.27
2023-06-03T00:30:02.858Z,40.27
2023-06-03T00:31:03.126Z,40.25
2023-06-03T00:32:03.054Z,40.24
2023-06-03T00:33:04.106Z,40.27
2023-06-03T00:34:03.083Z,40.33
2023-06-03T00:35:04.084Z,40.33
2023-06-03T00:36:04.133Z,40.33
2023-06-03T00:37:04.158Z,40.32
2023-06-03T00:38:04.233Z,40.38
2023-06-03T00:39:03.246Z,40.28
2023-06-03T00:40:04.288Z,40.35
2023-06-03T00:41:04.552Z,40.39
2023-06-03T00:42:03.372Z,40.33
2023-06-03T00:43:04.449Z,40.37
2023-06-03T00:44:04.470Z,40.34
2023-06-03T00:45:03.509Z,40.31
2023-06-03T00:46:04.653Z,40.26
2023-06-03T00:47:04.621Z,40.31
2023-06-03T00:48:03.704Z,40.40
2023-06-03T00:49:04.707Z,40.29
2023-06-03T00:50:03.773Z,40.39
2023-06-03T00:51:05.047Z,40.36
2023-06-03T00:52:03.835Z,40.43
2023-06-03T00:53:04.875Z,40.35
2023-06-03T00:54:04.921Z,40.45
2023-06-03T00:55:03.950Z,40.39
2023-06-03T00:56:04.004Z,40.43
2023-06-03T00:57:05.084Z,40.39
2023-06-03T00:58:05.105Z,40.48
2023-06-03T00:59:05.190Z,40.48
2023-06-03T01:00:04.183Z,40.47
2023-06-03T01:01:04.513Z,40.36
2023-06-03T01:02:05.343Z,40.42
2023-06-03T01:03:05.450Z,40.39
2023-06-03T01:04:05.351Z,40.40
2023-06-03T01:05:05.462Z,40.40
2023-06-03T01:06:05.446Z,40.40
2023-06-03T01:07:04.513Z,40.45
2023-06-03T01:08:05.560Z,40.36
2023-06-03T01:09:04.580Z,40.45
2023-06-03T01:10:05.644Z,40.38
2023-06-03T01:11:05.947Z,40.45
2023-06-03T01:12:04.756Z,40.48
2023-06-03T01:13:05.798Z,40.49
2023-06-03T01:14:04.844Z,40.48
2023-06-03T01:15:04.897Z,40.50
2023-06-03T01:16:04.962Z,40.53
2023-06-03T01:17:05.968Z,40.54
2023-06-03T01:18:06.174Z,40.44
2023-06-03T01:19:05.053Z,40.53
2023-06-03T01:20:06.117Z,40.52
2023-06-03T01:21:06.356Z,40.49
2023-06-03T01:22:05.182Z,40.48
2023-06-03T01:23:06.252Z,40.43
2023-06-03T01:24:06.279Z,40.44
2023-06-03T01:25:05.430Z,40.50
2023-06-03T01:26:06.366Z,40.46
2023-06-03T01:27:06.401Z,40.46
2023-06-03T01:28:05.469Z,40.49
2023-06-03T01:29:06.505Z,40.52
2023-06-03T01:30:05.548Z,40.48
2023-06-03T01:31:05.901Z,40.45
2023-06-03T01:32:05.654Z,40.44
2023-06-03T01:33:06.834Z,40.54
2023-06-03T01:34:06.744Z,40.54
2023-06-03T01:35:06.787Z,40.53
2023-06-03T01:36:05.849Z,40.58
2023-06-03T01:37:06.864Z,40.44
2023-06-03T01:38:06.965Z,40.54
2023-06-03T01:39:06.944Z,40.51
2023-06-03T01:40:06.992Z,40.54
2023-06-03T01:41:06.349Z,40.55
2023-06-03T01:42:07.080Z,40.63
2023-06-03T01:43:06.128Z,40.55
2023-06-03T01:44:06.179Z,40.56
2023-06-03T01:45:06.222Z,40.56
2023-06-03T01:46:07.337Z,40.59
2023-06-03T01:47:07.358Z,40.55
2023-06-03T01:48:07.419Z,40.56
2023-06-03T01:49:06.406Z,40.62
2023-06-03T01:50:07.450Z,40.60
2023-06-03T01:51:07.490Z,40.60
2023-06-03T01:52:07.536Z,40.60
2023-06-03T01:53:08.075Z,40.52
2023-06-03T01:54:06.680Z,40.51
2023-06-03T01:55:07.717Z,40.55
2023-06-03T01:56:07.769Z,40.47
2023-06-03T01:57:07.858Z,40.55
2023-06-03T01:58:06.857Z,40.55
2023-06-03T01:59:07.892Z,40.59
2023-06-03T02:00:07.960Z,40.58
2023-06-03T02:01:07.158Z,40.68
2023-06-03T02:02:07.132Z,40.60
2023-06-03T02:03:07.212Z,40.67
2023-06-03T02:04:08.166Z,40.64
2023-06-03T02:05:08.197Z,40.66
2023-06-03T02:06:07.267Z,40.69
2023-06-03T02:07:08.284Z,40.64
2023-06-03T02:08:07.330Z,40.67
2023-06-03T02:09:08.368Z,40.67
2023-06-03T02:10:07.425Z,40.67
2023-06-03T02:11:08.483Z,40.64
2023-06-03T02:12:08.513Z,40.79
2023-06-03T02:13:07.558Z,40.74
2023-06-03T02:14:07.616Z,40.64
2023-06-03T02:15:07.658Z,40.66
2023-06-03T02:16:08.744Z,40.74
2023-06-03T02:17:08.748Z,40.60
2023-06-03T02:18:07.827Z,40.74
2023-06-03T02:19:07.808Z,40.70
2023-06-03T02:20:08.894Z,40.64
2023-06-03T02:21:08.906Z,40.72
2023-06-03T02:22:07.946Z,40.69
2023-06-03T02:23:08.994Z,40.69
2023-06-03T02:24:08.037Z,40.68
2023-06-03T02:25:09.093Z,40.64
2023-06-03T02:26:09.123Z,40.64
2023-06-03T02:27:09.163Z,40.66
2023-06-03T02:28:08.206Z,40.69
2023-06-03T02:29:09.285Z,40.62
2023-06-03T02:30:09.267Z,40.65
2023-06-03T02:31:08.317Z,40.69
2023-06-03T02:32:09.395Z,40.66
2023-06-03T02:33:09.451Z,40.68
2023-06-03T02:34:08.438Z,40.69
2023-06-03T02:35:09.448Z,40.69
2023-06-03T02:36:09.491Z,40.66
2023-06-03T02:37:08.548Z,40.63
2023-06-03T02:38:09.576Z,40.58
2023-06-03T02:39:08.625Z,40.66
2023-06-03T02:40:09.633Z,40.63
2023-06-03T02:41:08.656Z,40.67
2023-06-03T02:42:09.706Z,40.72
2023-06-03T02:43:08.746Z,40.72
2023-06-03T02:44:08.755Z,40.77
2023-06-03T02:45:09.796Z,40.70
2023-06-03T02:46:09.874Z,40.71
2023-06-03T02:47:09.893Z,40.78
2023-06-03T02:48:09.967Z,40.67
2023-06-03T02:49:08.993Z,40.76
2023-06-03T02:50:10.008Z,40.65
2023-06-03T02:51:10.042Z,40.72
2023-06-03T02:52:09.082Z,40.70
2023-06-03T02:53:09.095Z,40.80
2023-06-03T02:54:09.136Z,40.79
2023-06-03T02:55:09.217Z,40.73
2023-06-03T02:56:09.177Z,40.82
2023-06-03T02:57:09.188Z,40.77
2023-06-03T02:58:09.225Z,40.78
2023-06-03T02:59:10.262Z,40.72
2023-06-03T03:00:09.276Z,40.76
2023-06-03T03:01:10.365Z,40.75
2023-06-03T03:02:10.318Z,40.71
2023-06-03T03:03:10.455Z,40.80
2023-06-03T03:04:09.386Z,40.80
2023-06-03T03:05:10.381Z,40.75
2023-06-03T03:06:09.421Z,40.89
2023-06-03T03:07:10.460Z,40.75
2023-06-03T03:08:10.467Z,40.73
2023-06-03T03:09:10.565Z,40.75
2023-06-03T03:10:10.505Z,40.76
2023-06-03T03:11:10.538Z,40.79
2023-06-03T03:12:10.566Z,40.84
2023-06-03T03:13:10.564Z,40.79
2023-06-03T03:14:09.582Z,40.77
2023-06-03T03:15:10.606Z,40.84
2023-06-03T03:16:09.674Z,40.82
2023-06-03T03:17:09.633Z,40.81
2023-06-03T03:18:10.693Z,40.71
2023-06-03T03:19:09.652Z,40.78
2023-06-03T03:20:10.684Z,40.73
2023-06-03T03:21:09.692Z,40.81
2023-06-03T03:22:10.694Z,40.87
2023-06-03T03:23:09.747Z,40.82
2023-06-03T03:24:10.730Z,40.89
2023-06-03T03:25:09.761Z,40.81
2023-06-03T03:26:10.837Z,40.77
2023-06-03T03:27:09.785Z,40.82
2023-06-03T03:28:10.801Z,40.96
2023-06-03T03:29:09.834Z,40.85
2023-06-03T03:30:10.878Z,40.95
2023-06-03T03:31:10.862Z,40.83
2023-06-03T03:32:10.907Z,40.82
2023-06-03T03:33:10.908Z,40.90
2023-06-03T03:34:09.914Z,40.84
2023-06-03T03:35:09.932Z,40.79
2023-06-03T03:36:09.940Z,40.76
2023-06-03T03:37:11.055Z,40.89
2023-06-03T03:38:10.972Z,40.83
2023-06-03T03:39:10.986Z,40.79
2023-06-03T03:40:11.020Z,40.98
2023-06-03T03:41:11.026Z,40.90
2023-06-03T03:42:11.047Z,40.85
2023-06-03T03:43:11.130Z,40.78
2023-06-03T03:44:11.119Z,40.77
2023-06-03T03:45:11.129Z,40.90
2023-06-03T03:46:10.156Z,40.84
2023-06-03T03:47:11.176Z,40.81
2023-06-03T03:48:11.205Z,40.92
2023-06-03T03:49:10.220Z,40.85
2023-06-03T03:50:11.225Z,40.92
2023-06-03T03:51:10.259Z,40.78
2023-06-03T03:52:13.219Z,40.93
2023-06-03T03:53:11.248Z,40.91
2023-06-03T03:54:11.227Z,40.94
2023-06-03T03:55:10.224Z,40.84
2023-06-03T03:56:11.249Z,40.87
2023-06-03T03:57:10.198Z,40.92
2023-06-03T03:58:10.199Z,40.88
2023-06-03T03:59:10.189Z,40.82
2023-06-03T04:00:10.185Z,40.85
2023-06-03T04:01:11.161Z,40.92
2023-06-03T04:02:11.165Z,40.83
2023-06-03T04:03:11.281Z,40.88
2023-06-03T04:04:11.166Z,40.79
2023-06-03T04:05:10.138Z,40.89
2023-06-03T04:06:11.135Z,40.84
2023-06-03T04:07:11.136Z,40.89
2023-06-03T04:08:11.136Z,40.87
2023-06-03T04:09:10.139Z,40.90
2023-06-03T04:10:11.111Z,40.91
2023-06-03T04:11:11.118Z,40.88
2023-06-03T04:12:10.086Z,41.01
2023-06-03T04:13:11.085Z,41.00
2023-06-03T04:14:10.091Z,40.96
2023-06-03T04:15:11.073Z,40.83
2023-06-03T04:16:10.119Z,40.80
2023-06-03T04:17:10.052Z,40.93
2023-06-03T04:18:11.052Z,40.80
2023-06-03T04:19:10.042Z,40.94
2023-06-03T04:20:11.038Z,40.92
2023-06-03T04:21:10.032Z,41.02
2023-06-03T04:22:10.024Z,40.85
2023-06-03T04:23:11.003Z,40.95
2023-06-03T04:24:10.090Z,40.97
2023-06-03T04:25:10.089Z,40.95
2023-06-03T04:26:09.994Z,40.82
2023-06-03T04:27:10.163Z,40.82
2023-06-03T04:28:10.045Z,40.99
2023-06-03T04:29:10.055Z,40.88
2023-06-03T04:30:10.973Z,40.95
2023-06-03T04:31:09.959Z,40.92
2023-06-03T04:32:09.983Z,40.91
2023-06-03T04:33:10.995Z,40.91
2023-06-03T04:34:09.950Z,40.90
2023-06-03T04:35:10.942Z,40.87
2023-06-03T04:36:10.928Z,40.94
2023-06-03T04:37:10.938Z,40.99
2023-06-03T04:38:10.901Z,40.91
2023-06-03T04:39:10.927Z,40.92
2023-06-03T04:40:09.895Z,40.91
2023-06-03T04:41:10.886Z,40.87
2023-06-03T04:42:10.893Z,40.91
2023-06-03T04:43:09.883Z,40.91
2023-06-03T04:44:10.938Z,40.94
2023-06-03T04:45:09.879Z,40.86
2023-06-03T04:46:10.875Z,40.90
2023-06-03T04:47:10.848Z,40.87
2023-06-03T04:48:10.904Z,40.91
2023-06-03T04:49:10.850Z,40.93
2023-06-03T04:50:10.828Z,40.93
2023-06-03T04:51:09.822Z,40.91
2023-06-03T04:52:10.854Z,40.87
2023-06-03T04:53:10.854Z,40.82
2023-06-03T04:54:10.859Z,40.90
2023-06-03T04:55:10.866Z,40.96
2023-06-03T04:56:10.850Z,40.93
2023-06-03T04:57:09.888Z,40.90
2023-06-03T04:58:09.876Z,40.91
2023-06-03T04:59:10.908Z,40.94
2023-06-03T05:00:10.937Z,40.88
2023-06-03T05:01:10.919Z,40.82
2023-06-03T05:02:11.117Z,40.81
2023-06-03T05:03:11.123Z,40.76
2023-06-03T05:04:10.084Z,40.85
2023-06-03T05:05:10.988Z,40.80
2023-06-03T05:06:11.010Z,40.82
2023-06-03T05:07:10.044Z,40.76
2023-06-03T05:08:10.036Z,40.75
2023-06-03T05:09:10.061Z,40.71
2023-06-03T05:10:11.112Z,40.75
2023-06-03T05:11:11.097Z,40.81
2023-06-03T05:12:10.120Z,40.77
2023-06-03T05:13:11.146Z,40.82
2023-06-03T05:14:10.225Z,40.80
2023-06-03T05:15:11.188Z,40.73
2023-06-03T05:16:10.246Z,40.84
2023-06-03T05:17:11.265Z,40.73
2023-06-03T05:18:11.279Z,40.73
2023-06-03T05:19:10.317Z,40.84
2023-06-03T05:20:10.343Z,40.69
2023-06-03T05:21:10.372Z,40.62
2023-06-03T05:22:10.424Z,40.74
2023-06-03T05:23:11.422Z,40.70
2023-06-03T05:24:10.474Z,40.61
2023-06-03T05:25:10.488Z,40.63
2023-06-03T05:26:11.506Z,40.68
2023-06-03T05:27:11.541Z,40.60
2023-06-03T05:28:11.596Z,40.60
2023-06-03T05:29:11.643Z,40.55
2023-06-03T05:30:10.702Z,40.57
2023-06-03T05:31:11.744Z,40.54
2023-06-03T05:32:11.785Z,40.51
2023-06-03T05:33:10.850Z,40.50
2023-06-03T05:34:10.850Z,40.48
2023-06-03T05:35:11.883Z,40.51
2023-06-03T05:36:10.882Z,40.50
2023-06-03T05:37:10.942Z,40.46
2023-06-03T05:38:10.958Z,40.48
2023-06-03T05:39:12.015Z,40.46
2023-06-03T05:40:12.028Z,40.43
2023-06-03T05:41:12.088Z,40.39
2023-06-03T05:42:11.105Z,40.38
2023-06-03T05:43:11.148Z,40.39
2023-06-03T05:44:12.209Z,40.46
2023-06-03T05:45:12.214Z,40.42
2023-06-03T05:46:12.309Z,40.43
2023-06-03T05:47:12.311Z,40.42
2023-06-03T05:48:12.387Z,40.41
2023-06-03T05:49:12.416Z,40.34
2023-06-03T05:50:12.463Z,40.37
2023-06-03T05:51:11.488Z,40.37
2023-06-03T05:52:12.566Z,40.39
2023-06-03T05:53:12.596Z,40.34
2023-06-03T05:54:12.652Z,40.31
2023-06-03T05:55:12.671Z,40.32
2023-06-03T05:56:12.742Z,40.28
2023-06-03T05:57:12.767Z,40.39
2023-06-03T05:58:12.833Z,40.39
2023-06-03T05:59:11.862Z,40.31
2023-06-03T06:00:11.923Z,40.33
2023-06-03T06:01:12.942Z,40.30
2023-06-03T06:02:12.994Z,40.25
2023-06-03T06:03:13.139Z,40.29
2023-06-03T06:04:13.256Z,40.32
2023-06-03T06:05:13.139Z,40.35
2023-06-03T06:06:12.166Z,40.32
2023-06-03T06:07:13.214Z,40.36
2023-06-03T06:08:12.286Z,40.27
2023-06-03T06:09:13.326Z,40.28
2023-06-03T06:10:13.440Z,40.30
2023-06-03T06:11:13.429Z,40.24
2023-06-03T06:12:12.449Z,40.23
2023-06-03T06:13:12.492Z,40.25
2023-06-03T06:14:13.534Z,40.24
2023-06-03T06:15:13.585Z,40.25
2023-06-03T06:16:12.835Z,40.25
2023-06-03T06:17:12.660Z,40.19
2023-06-03T06:18:13.691Z,40.20
2023-06-03T06:19:12.751Z,40.21
2023-06-03T06:20:12.792Z,40.23
2023-06-03T06:21:13.816Z,40.22
2023-06-03T06:22:13.828Z,40.19
2023-06-03T06:23:13.944Z,40.15
2023-06-03T06:24:13.973Z,40.10
2023-06-03T06:25:13.978Z,40.17
2023-06-03T06:26:14.001Z,40.13
2023-06-03T06:27:13.049Z,40.18
2023-06-03T06:28:14.105Z,40.15
2023-06-03T06:29:14.140Z,40.13
2023-06-03T06:30:13.198Z,40.13
2023-06-03T06:31:13.498Z,40.12
2023-06-03T06:32:13.322Z,40.08
2023-06-03T06:33:13.311Z,40.16
2023-06-03T06:34:14.339Z,40.10
2023-06-03T06:35:14.449Z,40.07
2023-06-03T06:36:14.446Z,40.08
2023-06-03T06:37:14.455Z,40.08
2023-06-03T06:38:14.495Z,40.04
2023-06-03T06:39:14.544Z,40.06
2023-06-03T06:40:13.579Z,40.07
2023-06-03T06:41:14.602Z,40.00
2023-06-03T06:42:14.642Z,40.02
2023-06-03T06:43:13.656Z,40.06
2023-06-03T06:44:13.693Z,40.02
2023-06-03T06:45:13.760Z,40.02
2023-06-03T06:46:14.861Z,40.01
2023-06-03T06:47:14.825Z,39.99
2023-06-03T06:48:13.864Z,40.02
2023-06-03T06:49:13.916Z,39.99
2023-06-03T06:50:13.954Z,39.97
2023-06-03T06:51:14.954Z,39.94
2023-06-03T06:52:15.002Z,39.94
2023-06-03T06:53:15.032Z,39.99
2023-06-03T06:54:14.063Z,39.98
2023-06-03T06:55:14.078Z,39.96
2023-06-03T06:56:14.099Z,39.97
2023-06-03T06:57:14.126Z,39.94
2023-06-03T06:58:14.187Z,39.93
2023-06-03T06:59:14.181Z,39.90
2023-06-03T07:00:14.218Z,39.89
2023-06-03T07:01:14.271Z,39.88
2023-06-03T07:02:15.248Z,39.85
2023-06-03T07:03:15.397Z,39.89
2023-06-03T07:04:14.299Z,39.88
2023-06-03T07:05:17.686Z,39.88
2023-06-03T07:06:14.325Z,39.87
2023-06-03T07:07:15.301Z,39.86
2023-06-03T07:08:14.331Z,39.83
2023-06-03T07:09:15.292Z,39.85
2023-06-03T07:10:15.295Z,39.81
2023-06-03T07:11:15.280Z,39.86
2023-06-03T07:12:15.281Z,39.85
2023-06-03T07:13:15.292Z,39.85
2023-06-03T07:14:15.267Z,39.82
2023-06-03T07:15:14.292Z,39.79
2023-06-03T07:16:15.307Z,39.82
2023-06-03T07:17:15.235Z,39.81
2023-06-03T07:18:15.238Z,39.82
2023-06-03T07:19:14.222Z,39.81
2023-06-03T07:20:14.281Z,39.77
2023-06-03T07:21:15.223Z,39.74
2023-06-03T07:22:14.217Z,39.74
2023-06-03T07:23:15.257Z,39.74
2023-06-03T07:24:14.193Z,39.80
2023-06-03T07:25:15.200Z,39.73
2023-06-03T07:26:14.180Z,39.72
2023-06-03T07:27:15.184Z,39.77
2023-06-03T07:28:14.175Z,39.76
2023-06-03T07:29:15.163Z,39.72
2023-06-03T07:30:15.205Z,39.76
2023-06-03T07:31:14.464Z,39.79
2023-06-03T07:32:15.227Z,39.74
2023-06-03T07:33:15.150Z,39.69
2023-06-03T07:34:15.127Z,39.75
2023-06-03T07:35:15.139Z,39.75
2023-06-03T07:36:16.220Z,39.67
2023-06-03T07:37:15.116Z,39.71
2023-06-03T07:38:15.103Z,39.73
2023-06-03T07:39:14.094Z,39.77
2023-06-03T07:40:15.265Z,39.70
2023-06-03T07:41:15.088Z,39.71
2023-06-03T07:42:15.074Z,39.70
2023-06-03T07:43:14.068Z,39.72
2023-06-03T07:44:14.085Z,39.71
2023-06-03T07:45:15.082Z,39.78
2023-06-03T07:46:14.097Z,39.78
2023-06-03T07:47:14.043Z,39.79
2023-06-03T07:48:15.086Z,39.81
2023-06-03T07:49:15.020Z,39.83
2023-06-03T07:50:15.044Z,39.74
2023-06-03T07:51:14.015Z,39.74
2023-06-03T07:52:15.014Z,39.74
2023-06-03T07:53:14.999Z,39.69
2023-06-03T07:54:14.030Z,39.73
2023-06-03T07:55:14.006Z,39.72
2023-06-03T07:56:15.001Z,39.72
2023-06-03T07:57:13.967Z,39.73
2023-06-03T07:58:13.964Z,39.69
2023-06-03T07:59:13.974Z,39.70
2023-06-03T08:00:14.980Z,39.68
2023-06-03T08:01:14.967Z,39.72
2023-06-03T08:02:13.998Z,39.70
2023-06-03T08:03:14.949Z,39.70
2023-06-03T08:04:14.936Z,39.69
2023-06-03T08:05:14.934Z,39.71
2023-06-03T08:06:14.955Z,39.67
2023-06-03T08:07:15.042Z,39.67
2023-06-03T08:08:14.907Z,39.70
2023-06-03T08:09:13.900Z,39.67
2023-06-03T08:10:14.921Z,39.66
2023-06-03T08:11:14.888Z,39.72
2023-06-03T08:12:14.874Z,39.69
2023-06-03T08:13:14.918Z,39.70
2023-06-03T08:14:14.872Z,39.74
2023-06-03T08:15:14.889Z,39.69
2023-06-03T08:16:14.894Z,39.68
2023-06-03T08:17:14.846Z,39.64
2023-06-03T08:18:14.842Z,39.72
2023-06-03T08:19:14.838Z,39.65
2023-06-03T08:20:14.835Z,39.64
2023-06-03T08:21:13.837Z,39.68
2023-06-03T08:22:14.843Z,39.69
2023-06-03T08:23:14.722Z,39.76
2023-06-03T08:24:13.829Z,39.65
2023-06-03T08:25:14.801Z,39.67
2023-06-03T08:26:14.815Z,39.68
2023-06-03T08:27:14.792Z,39.71
2023-06-03T08:28:13.789Z,39.70
2023-06-03T08:29:13.800Z,39.63
2023-06-03T08:30:14.783Z,39.75
2023-06-03T08:31:14.810Z,39.66
2023-06-03T08:32:14.760Z,39.69
2023-06-03T08:33:14.791Z,39.67
2023-06-03T08:34:14.742Z,39.63
2023-06-03T08:35:13.743Z,39.64
2023-06-03T08:36:13.721Z,39.66
2023-06-03T08:37:13.728Z,39.66
2023-06-03T08:38:14.744Z,39.71
2023-06-03T08:39:14.775Z,39.60
2023-06-03T08:40:13.818Z,39.59
2023-06-03T08:41:13.856Z,39.59
2023-06-03T08:42:13.904Z,39.69
2023-06-03T08:43:14.475Z,39.59
2023-06-03T08:44:13.970Z,39.65
2023-06-03T08:45:13.996Z,39.66
2023-06-03T08:46:15.041Z,39.65
2023-06-03T08:47:14.037Z,39.63
2023-06-03T08:48:15.158Z,39.59
2023-06-03T08:49:15.108Z,39.63
2023-06-03T08:50:14.131Z,39.66
2023-06-03T08:51:14.169Z,39.54
2023-06-03T08:52:14.186Z,39.69
2023-06-03T08:53:14.231Z,39.68
2023-06-03T08:54:15.249Z,39.56
2023-06-03T08:55:14.298Z,39.54
2023-06-03T08:56:14.335Z,39.60
2023-06-03T08:57:14.363Z,39.68
2023-06-03T08:58:14.396Z,39.68
2023-06-03T08:59:15.424Z,39.54
2023-06-03T09:00:15.482Z,39.50
2023-06-03T09:01:14.558Z,39.52
2023-06-03T09:02:14.570Z,39.50
2023-06-03T09:03:14.657Z,39.54
2023-06-03T09:04:18.229Z,39.67
2023-06-03T09:05:15.640Z,39.62
2023-06-03T09:06:14.640Z,39.58
2023-06-03T09:07:15.637Z,39.49
2023-06-03T09:08:15.618Z,39.61
2023-06-03T09:09:15.622Z,39.56
2023-06-03T09:10:17.102Z,39.60
2023-06-03T09:11:15.607Z,39.54
2023-06-03T09:12:15.591Z,39.65
2023-06-03T09:13:14.596Z,39.62
2023-06-03T09:14:15.589Z,39.66
2023-06-03T09:15:15.602Z,39.59
2023-06-03T09:16:17.199Z,39.51
2023-06-03T09:17:14.588Z,39.51
2023-06-03T09:18:15.556Z,39.56
2023-06-03T09:19:14.548Z,39.62
2023-06-03T09:20:15.543Z,39.58
2023-06-03T09:21:14.538Z,39.63
2023-06-03T09:22:14.608Z,39.63
2023-06-03T09:23:14.599Z,39.62
2023-06-03T09:24:14.515Z,39.60
2023-06-03T09:25:14.517Z,39.67
2023-06-03T09:26:14.501Z,39.62
2023-06-03T09:27:15.494Z,39.57
2023-06-03T09:28:17.204Z,39.58
2023-06-03T09:29:15.522Z,39.57
2023-06-03T09:30:14.478Z,39.65
2023-06-03T09:31:14.640Z,39.52
2023-06-03T09:32:15.465Z,39.58
2023-06-03T09:33:14.496Z,39.61
2023-06-03T09:34:14.456Z,39.69
2023-06-03T09:35:14.434Z,39.57
2023-06-03T09:36:16.903Z,39.57
2023-06-03T09:37:14.419Z,39.59
2023-06-03T09:38:14.432Z,39.54
2023-06-03T09:39:14.424Z,39.61
2023-06-03T09:40:15.395Z,39.61
2023-06-03T09:41:15.400Z,39.61
2023-06-03T09:42:15.391Z,39.62
2023-06-03T09:43:15.389Z,39.66
2023-06-03T09:44:16.139Z,39.65
2023-06-03T09:45:15.374Z,39.53
2023-06-03T09:46:15.355Z,39.54
2023-06-03T09:47:15.391Z,39.58
2023-06-03T09:48:15.336Z,39.57
2023-06-03T09:49:24.345Z,39.56
2023-06-03T09:50:16.923Z,39.52
2023-06-03T09:51:15.322Z,39.59
2023-06-03T09:52:15.313Z,39.61
2023-06-03T09:53:14.326Z,39.63
2023-06-03T09:54:14.312Z,39.59
2023-06-03T09:55:15.304Z,39.64
2023-06-03T09:56:16.224Z,39.64
2023-06-03T09:57:14.333Z,39.59
2023-06-03T09:58:14.284Z,39.57
2023-06-03T09:59:15.300Z,39.58
2023-06-03T10:00:14.282Z,39.57
2023-06-03T10:01:14.333Z,39.59
2023-06-03T10:02:15.353Z,39.58
2023-06-03T10:03:15.314Z,39.63
2023-06-03T10:04:15.225Z,39.54
2023-06-03T10:05:15.233Z,39.63
2023-06-03T10:06:15.240Z,39.64
2023-06-03T10:07:14.221Z,39.58
2023-06-03T10:08:14.204Z,39.63
2023-06-03T10:09:14.190Z,39.55
2023-06-03T10:10:14.185Z,39.64
2023-06-03T10:11:14.182Z,39.61
2023-06-03T10:12:15.205Z,39.67
2023-06-03T10:13:15.160Z,39.61
2023-06-03T10:14:15.135Z,39.63
2023-06-03T10:15:14.182Z,39.63
2023-06-03T10:16:14.132Z,39.63
2023-06-03T10:17:15.114Z,39.70
2023-06-03T10:18:15.135Z,39.67
2023-06-03T10:19:15.105Z,39.69
2023-06-03T10:20:14.113Z,39.68
2023-06-03T10:21:14.146Z,39.74
2023-06-03T10:22:15.089Z,39.73
2023-06-03T10:23:15.145Z,39.70
2023-06-03T10:24:17.991Z,39.66
2023-06-03T10:25:14.068Z,39.71
2023-06-03T10:26:14.063Z,39.72
2023-06-03T10:27:15.071Z,39.74
2023-06-03T10:28:14.057Z,39.67
2023-06-03T10:29:15.047Z,39.75
2023-06-03T10:30:15.090Z,39.71
2023-06-03T10:31:15.033Z,39.73
2023-06-03T10:32:15.016Z,39.77
2023-06-03T10:33:15.002Z,39.70
2023-06-03T10:34:15.000Z,39.77
2023-06-03T10:35:14.996Z,39.78
2023-06-03T10:36:14.996Z,39.68
2023-06-03T10:37:14.982Z,39.74
2023-06-03T10:38:14.988Z,39.77
2023-06-03T10:39:14.956Z,39.79
2023-06-03T10:40:14.962Z,39.74
2023-06-03T10:41:14.965Z,39.77
2023-06-03T10:42:15.000Z,39.73
2023-06-03T10:43:14.061Z,39.70
2023-06-03T10:44:15.102Z,39.72
2023-06-03T10:45:15.153Z,39.75
2023-06-03T10:46:15.236Z,39.79
2023-06-03T10:47:14.247Z,39.78
2023-06-03T10:48:14.315Z,39.85
2023-06-03T10:49:15.326Z,39.87
2023-06-03T10:50:14.385Z,39.89
2023-06-03T10:51:15.414Z,39.90
2023-06-03T10:52:15.489Z,39.87
2023-06-03T10:53:16.710Z,39.92
2023-06-03T10:54:14.485Z,39.92
2023-06-03T10:55:14.522Z,39.94
2023-06-03T10:56:15.474Z,39.92
2023-06-03T10:57:14.466Z,39.92
2023-06-03T10:58:15.455Z,39.96
2023-06-03T10:59:15.443Z,39.94
2023-06-03T11:00:15.470Z,39.92
2023-06-03T11:01:15.475Z,39.92
2023-06-03T11:02:14.453Z,39.92
2023-06-03T11:03:14.415Z,39.94
2023-06-03T11:04:15.532Z,39.89
2023-06-03T11:05:15.416Z,39.98
2023-06-03T11:06:15.433Z,40.02
2023-06-03T11:07:14.407Z,39.97
2023-06-03T11:08:15.379Z,39.91
2023-06-03T11:09:15.378Z,39.95
2023-06-03T11:10:14.370Z,40.00
2023-06-03T11:11:15.375Z,40.01
2023-06-03T11:12:15.375Z,40.06
2023-06-03T11:13:15.347Z,40.03
2023-06-03T11:14:15.337Z,39.98
2023-06-03T11:15:15.329Z,39.99
2023-06-03T11:16:15.345Z,39.93
2023-06-03T11:17:15.323Z,39.97
2023-06-03T11:18:15.333Z,39.94
2023-06-03T11:19:15.434Z,39.97
2023-06-03T11:20:15.435Z,39.97
2023-06-03T11:21:15.472Z,40.02
2023-06-03T11:22:15.524Z,39.99
2023-06-03T11:23:15.578Z,39.92
2023-06-03T11:24:15.598Z,39.93
2023-06-03T11:25:15.653Z,40.02
2023-06-03T11:26:14.693Z,40.03
2023-06-03T11:27:14.746Z,40.05
2023-06-03T11:28:15.782Z,40.11
2023-06-03T11:29:15.807Z,40.05
2023-06-03T11:30:15.847Z,40.19
2023-06-03T11:31:14.979Z,40.20
2023-06-03T11:32:14.942Z,40.12
2023-06-03T11:33:14.970Z,40.14
2023-06-03T11:34:16.034Z,40.24
2023-06-03T11:35:16.057Z,40.14
2023-06-03T11:36:16.094Z,40.09
2023-06-03T11:37:16.159Z,40.15
2023-06-03T11:38:16.181Z,40.22
2023-06-03T11:39:15.253Z,40.17
2023-06-03T11:40:16.327Z,40.18
2023-06-03T11:41:16.319Z,40.13
2023-06-03T11:42:15.362Z,40.03
2023-06-03T11:43:15.396Z,40.07
2023-06-03T11:44:25.039Z,40.14
2023-06-03T11:45:16.462Z,40.14
2023-06-03T11:46:16.476Z,40.12
2023-06-03T11:47:15.416Z,40.19
2023-06-03T11:48:15.464Z,40.16
2023-06-03T11:49:15.439Z,40.18
2023-06-03T11:50:15.404Z,40.23
2023-06-03T11:51:16.381Z,40.26
2023-06-03T11:52:15.370Z,40.23
2023-06-03T11:53:15.369Z,40.25
2023-06-03T11:54:16.386Z,40.20
2023-06-03T11:55:16.468Z,40.26
2023-06-03T11:56:16.795Z,40.21
2023-06-03T11:57:16.359Z,40.23
2023-06-03T11:58:15.330Z,40.25
2023-06-03T11:59:15.324Z,40.27
2023-06-03T12:00:16.317Z,40.19
2023-06-03T12:01:16.328Z,40.25
2023-06-03T12:02:15.336Z,40.34
2023-06-03T12:03:16.485Z,40.33
2023-06-03T12:04:15.282Z,40.36
2023-06-03T12:05:16.292Z,40.34
2023-06-03T12:06:16.262Z,40.40
2023-06-03T12:07:15.251Z,40.38
2023-06-03T12:08:16.253Z,40.38
2023-06-03T12:09:16.272Z,40.35
2023-06-03T12:10:16.239Z,40.35
2023-06-03T12:11:16.232Z,40.38
2023-06-03T12:12:16.225Z,40.39
2023-06-03T12:13:15.214Z,40.41
2023-06-03T12:14:15.261Z,40.39
2023-06-03T12:15:16.316Z,40.38
2023-06-03T12:16:15.362Z,40.42
2023-06-03T12:17:16.368Z,40.38
2023-06-03T12:18:16.437Z,40.33
2023-06-03T12:19:16.489Z,40.36
2023-06-03T12:20:17.231Z,40.38
2023-06-03T12:21:16.556Z,40.34
2023-06-03T12:22:15.586Z,40.37
2023-06-03T12:23:15.661Z,40.35
2023-06-03T12:24:16.664Z,40.38
2023-06-03T12:25:16.700Z,40.45
2023-06-03T12:26:16.744Z,40.39
2023-06-03T12:27:16.788Z,40.46
2023-06-03T12:28:16.811Z,40.45
2023-06-03T12:29:16.874Z,40.44
2023-06-03T12:30:15.904Z,40.51
2023-06-03T12:31:16.036Z,40.40
2023-06-03T12:32:17.072Z,40.50
2023-06-03T12:33:16.084Z,40.41
2023-06-03T12:34:17.055Z,40.42
2023-06-03T12:35:17.106Z,40.47
2023-06-03T12:36:16.228Z,40.46
2023-06-03T12:37:17.196Z,40.47
2023-06-03T12:38:16.272Z,40.49
2023-06-03T12:39:17.320Z,40.51
2023-06-03T12:40:17.340Z,40.43
2023-06-03T12:41:17.381Z,40.52
2023-06-03T12:42:17.433Z,40.52
2023-06-03T12:43:17.489Z,40.60
2023-06-03T12:44:16.526Z,40.55
2023-06-03T12:45:17.565Z,40.59
2023-06-03T12:46:17.615Z,40.56
2023-06-03T12:47:17.681Z,40.55
2023-06-03T12:48:16.700Z,40.62
2023-06-03T12:49:16.762Z,40.68
2023-06-03T12:50:17.769Z,40.76
2023-06-03T12:51:16.810Z,40.71
2023-06-03T12:52:21.401Z,40.67